createdAt,value
2019-01-25T00:00:40.280Z,82.60
2019-01-25T00:03:10.371Z,83.00
2019-01-25T00:05:39.662Z,83.19
2019-01-25T00:08:08.744Z,83.86
2019-01-25T00:10:37.866Z,84.53
2019-01-25T00:13:06.953Z,84.42
2019-01-25T00:15:36.056Z,83.82
2019-01-25T00:18:05.829Z,84.58
2019-01-25T00:20:34.955Z,85.07
2019-01-25T00:23:04.056Z,85.54
2019-01-25T00:25:33.277Z,85.29
2019-01-25T00:28:02.364Z,85.26
2019-01-25T00:30:31.453Z,85.26
2019-01-25T00:33:00.573Z,84.76
2019-01-25T00:35:29.661Z,85.47
2019-01-25T00:37:58.789Z,85.62
2019-01-25T00:40:27.873Z,85.75
2019-01-25T00:42:56.986Z,87.03
2019-01-25T00:45:26.084Z,86.54
2019-01-25T00:47:55.200Z,87.19
2019-01-25T00:50:24.499Z,86.78
2019-01-25T00:52:53.619Z,87.39
2019-01-25T00:55:22.699Z,87.89
2019-01-25T00:57:51.811Z,88.15
2019-01-25T01:00:22.941Z,88.09
2019-01-25T01:02:52.253Z,88.16
2019-01-25T01:05:21.728Z,88.10
2019-01-25T01:07:52.136Z,88.70
2019-01-25T01:10:22.077Z,88.32
2019-01-25T01:12:51.629Z,88.77
2019-01-25T01:15:21.129Z,88.38
2019-01-25T01:17:50.307Z,88.55
2019-01-25T01:20:20.163Z,89.35
2019-01-25T01:22:49.677Z,89.35
2019-01-25T01:25:18.865Z,88.69
2019-01-25T01:27:48.173Z,88.57
2019-01-25T01:30:22.436Z,88.33
2019-01-25T01:32:53.741Z,88.83
2019-01-25T01:35:22.838Z,88.84
2019-01-25T01:37:52.468Z,89.08
2019-01-25T01:40:23.579Z,89.27
2019-01-25T01:42:53.148Z,88.68
2019-01-25T01:45:22.340Z,89.03
2019-01-25T01:47:51.468Z,89.39
2019-01-25T01:50:20.909Z,89.54
2019-01-25T01:52:50.861Z,90.09
2019-01-25T01:55:19.948Z,89.83
2019-01-25T01:57:49.043Z,89.95
2019-01-25T02:00:23.431Z,90.16
2019-01-25T02:02:54.328Z,89.59
2019-01-25T02:05:23.433Z,90.03
2019-01-25T02:07:52.916Z,89.58
2019-01-25T02:10:29.279Z,90.14
2019-01-25T02:12:55.534Z,90.44
2019-01-25T02:15:25.530Z,90.65
2019-01-25T02:17:54.756Z,90.31
2019-01-25T02:20:31.464Z,90.74
2019-01-25T02:23:00.561Z,90.50
2019-01-25T02:25:29.663Z,90.52
2019-01-25T02:27:58.760Z,91.00
2019-01-25T02:30:28.341Z,90.78
2019-01-25T02:32:57.429Z,91.08
2019-01-25T02:35:26.538Z,90.92
2019-01-25T02:37:55.757Z,91.22
2019-01-25T02:40:26.016Z,90.66
2019-01-25T02:42:55.274Z,91.05
2019-01-25T02:45:24.477Z,91.11
2019-01-25T02:47:53.579Z,91.21
2019-01-25T02:50:22.688Z,91.16
2019-01-25T02:52:51.784Z,91.50
2019-01-25T02:55:20.893Z,91.49
2019-01-25T02:57:49.993Z,91.76
2019-01-25T03:00:21.088Z,91.69
2019-01-25T03:02:50.516Z,91.57
2019-01-25T03:05:20.450Z,91.66
2019-01-25T03:07:50.010Z,91.84
2019-01-25T03:10:19.338Z,91.89
2019-01-25T03:12:48.428Z,92.65
2019-01-25T03:15:19.450Z,92.73
2019-01-25T03:17:48.551Z,92.59
2019-01-25T03:20:18.002Z,93.20
2019-01-25T03:22:47.214Z,93.00
2019-01-25T03:25:18.987Z,93.43
2019-01-25T03:27:48.067Z,93.49
2019-01-25T03:30:18.824Z,93.46
2019-01-25T03:32:49.306Z,93.58
2019-01-25T03:35:39.355Z,93.68
2019-01-25T03:38:08.479Z,93.58
2019-01-25T03:40:37.613Z,93.87
2019-01-25T03:43:06.709Z,94.02
2019-01-25T03:45:36.960Z,94.37
2019-01-25T03:48:07.960Z,94.44
2019-01-25T03:50:37.068Z,93.66
2019-01-25T03:53:06.157Z,94.08
2019-01-25T03:55:35.787Z,94.41
2019-01-25T03:58:04.969Z,94.52
2019-01-25T04:00:34.076Z,94.46
2019-01-25T04:03:03.532Z,94.31
2019-01-25T04:05:32.662Z,94.05
2019-01-25T04:08:01.752Z,93.71
2019-01-25T04:10:30.848Z,94.43
2019-01-25T04:12:59.929Z,94.29
2019-01-25T04:15:31.226Z,94.29
2019-01-25T04:18:00.315Z,94.16
2019-01-25T04:20:29.777Z,94.47
2019-01-25T04:22:58.866Z,94.64
2019-01-25T04:25:28.080Z,94.98
2019-01-25T04:27:57.164Z,94.53
2019-01-25T04:30:27.989Z,94.71
2019-01-25T04:32:57.377Z,95.25
2019-01-25T04:35:26.590Z,95.15
2019-01-25T04:37:55.792Z,95.44
2019-01-25T04:40:24.873Z,95.59
2019-01-25T04:42:53.992Z,95.60
2019-01-25T04:45:23.129Z,95.78
2019-01-25T04:47:52.341Z,95.60
2019-01-25T04:50:22.899Z,95.70
2019-01-25T04:52:52.416Z,95.62
2019-01-25T04:55:23.336Z,95.43
2019-01-25T04:57:52.648Z,95.64
2019-01-25T05:00:23.105Z,95.75
2019-01-25T05:03:00.526Z,95.84
2019-01-25T05:05:29.704Z,95.64
2019-01-25T05:08:11.926Z,95.84
2019-01-25T05:10:41.016Z,95.75
2019-01-25T05:13:11.401Z,95.71
2019-01-25T05:15:40.494Z,95.53
2019-01-25T05:18:10.217Z,95.41
2019-01-25T05:20:39.301Z,96.09
2019-01-25T05:23:08.748Z,95.74
2019-01-25T05:25:38.224Z,95.62
2019-01-25T05:28:12.126Z,95.60
2019-01-25T05:30:48.798Z,95.27
2019-01-25T05:33:18.130Z,95.36
2019-01-25T05:35:47.221Z,95.51
2019-01-25T05:38:16.365Z,95.59
2019-01-25T05:40:45.705Z,95.62
2019-01-25T05:43:14.815Z,95.78
2019-01-25T05:45:44.890Z,95.82
2019-01-25T05:48:14.098Z,95.79
2019-01-25T05:50:43.191Z,96.05
2019-01-25T05:53:12.305Z,96.48
2019-01-25T05:55:41.398Z,96.37
2019-01-25T05:58:10.859Z,96.65
2019-01-25T06:00:41.566Z,96.41
2019-01-25T06:03:15.184Z,96.18
2019-01-25T06:05:44.774Z,95.89
2019-01-25T06:08:34.936Z,96.22
2019-01-25T06:11:06.652Z,95.93
2019-01-25T06:13:37.199Z,95.84
2019-01-25T06:16:06.836Z,95.87
2019-01-25T06:18:35.913Z,95.95
2019-01-25T06:21:05.435Z,96.03
2019-01-25T06:23:34.547Z,96.02
2019-01-25T06:26:03.637Z,96.16
2019-01-25T06:28:32.756Z,96.34
2019-01-25T06:31:01.840Z,96.33
2019-01-25T06:33:30.959Z,96.25
2019-01-25T06:36:00.058Z,96.00
2019-01-25T06:38:29.214Z,95.80
2019-01-25T06:40:58.268Z,96.09
2019-01-25T06:43:27.376Z,96.23
2019-01-25T06:45:56.473Z,96.43
2019-01-25T06:48:25.584Z,96.38
2019-01-25T06:50:54.664Z,95.70
2019-01-25T06:53:23.776Z,95.65
2019-01-25T06:55:52.857Z,96.08
2019-01-25T06:58:40.936Z,95.98
2019-01-25T07:01:18.196Z,96.26
2019-01-25T07:03:47.308Z,95.93
2019-01-25T07:06:16.392Z,95.92
2019-01-25T07:08:45.696Z,96.36
2019-01-25T07:11:14.777Z,96.29
2019-01-25T07:13:43.885Z,96.19
2019-01-25T07:16:12.968Z,96.14
2019-01-25T07:18:42.079Z,96.26
2019-01-25T07:21:11.176Z,96.02
2019-01-25T07:23:40.266Z,95.71
2019-01-25T07:26:09.373Z,95.85
2019-01-25T07:28:38.458Z,95.80
2019-01-25T07:31:07.610Z,95.62
2019-01-25T07:33:36.724Z,95.53
2019-01-25T07:36:05.979Z,95.56
2019-01-25T07:38:35.132Z,95.62
2019-01-25T07:41:04.254Z,95.43
2019-01-25T07:43:33.365Z,94.97
2019-01-25T07:46:02.557Z,94.97
2019-01-25T07:48:31.645Z,94.61
2019-01-25T07:51:00.750Z,94.20
2019-01-25T07:53:29.854Z,94.16
2019-01-25T07:55:59.002Z,94.08
2019-01-25T07:58:28.051Z,94.05
2019-01-25T08:00:57.185Z,93.81
2019-01-25T08:03:26.249Z,93.83
2019-01-25T08:05:55.352Z,92.69
2019-01-25T08:08:24.442Z,92.67
2019-01-25T08:10:53.549Z,92.23
2019-01-25T08:13:22.623Z,91.92
2019-01-25T08:15:51.729Z,91.99
2019-01-25T08:18:20.824Z,92.00
2019-01-25T08:20:49.950Z,91.81
2019-01-25T08:23:19.028Z,92.57
2019-01-25T08:25:48.125Z,92.51
2019-01-25T08:28:17.222Z,92.42
2019-01-25T08:30:46.666Z,92.09
2019-01-25T08:33:15.737Z,91.42
2019-01-25T08:35:44.859Z,91.23
2019-01-25T08:38:13.976Z,91.39
2019-01-25T08:40:43.086Z,91.57
2019-01-25T08:43:12.185Z,90.75
2019-01-25T08:45:41.268Z,90.15
2019-01-25T08:48:10.409Z,90.25
2019-01-25T08:50:39.525Z,89.55
2019-01-25T08:53:08.606Z,88.93
2019-01-25T08:55:37.718Z,89.68
2019-01-25T08:58:06.831Z,89.73
2019-01-25T09:00:35.921Z,89.05
2019-01-25T09:03:05.041Z,89.21
2019-01-25T09:05:34.127Z,88.11
2019-01-25T09:08:03.242Z,88.05
2019-01-25T09:10:32.344Z,87.98
2019-01-25T09:13:01.864Z,86.88
2019-01-25T09:15:31.006Z,86.35
2019-01-25T09:18:00.120Z,87.45
2019-01-25T09:20:29.219Z,86.51
2019-01-25T09:22:58.316Z,87.15
2019-01-25T09:25:27.403Z,86.97
2019-01-25T09:27:56.510Z,87.22
2019-01-25T09:30:25.682Z,87.25
2019-01-25T09:32:54.761Z,88.88
2019-01-25T09:35:23.897Z,89.21
2019-01-25T09:37:54.172Z,88.65
2019-01-25T09:40:24.195Z,89.00
2019-01-25T09:42:53.525Z,87.94
2019-01-25T09:45:23.008Z,88.90
2019-01-25T09:47:52.105Z,88.09
2019-01-25T09:50:21.349Z,87.23
2019-01-25T09:52:50.639Z,89.20
2019-01-25T09:55:24.285Z,88.60
2019-01-25T09:57:53.172Z,89.03
2019-01-25T10:00:28.655Z,88.14
2019-01-25T10:02:57.740Z,87.72
2019-01-25T10:05:26.938Z,86.90
2019-01-25T10:07:56.025Z,89.02
2019-01-25T10:10:25.128Z,88.78
2019-01-25T10:12:54.213Z,88.51
2019-01-25T10:15:24.811Z,87.49
2019-01-25T10:17:53.904Z,87.70
2019-01-25T10:20:23.109Z,87.60
2019-01-25T10:22:52.194Z,87.80
2019-01-25T10:25:21.303Z,88.88
2019-01-25T10:27:50.386Z,89.52
2019-01-25T10:30:21.932Z,87.13
2019-01-25T10:32:51.014Z,85.81
2019-01-25T10:35:20.352Z,84.90
2019-01-25T10:37:49.776Z,82.86
2019-01-25T10:40:19.491Z,79.17
2019-01-25T10:42:53.234Z,76.43
2019-01-25T10:45:25.264Z,76.42
2019-01-25T10:47:54.354Z,75.70
2019-01-25T10:50:23.451Z,69.03
2019-01-25T10:52:52.533Z,67.54
2019-01-25T10:55:21.636Z,67.03
2019-01-25T10:57:50.718Z,70.40
2019-01-25T11:00:19.951Z,74.10
2019-01-25T11:02:49.144Z,73.01
2019-01-25T11:05:20.745Z,69.51
2019-01-25T11:07:49.828Z,74.19
2019-01-25T11:10:18.939Z,76.56
2019-01-25T11:12:48.128Z,75.11
2019-01-25T11:15:19.615Z,74.26
2019-01-25T11:17:48.717Z,73.32
2019-01-25T11:20:19.656Z,71.28
2019-01-25T11:22:48.768Z,69.79
2019-01-25T11:25:20.599Z,70.08
2019-01-25T11:27:49.707Z,68.98
2019-01-25T11:30:18.882Z,68.06
2019-01-25T11:32:47.996Z,68.13
2019-01-25T11:35:17.083Z,67.69
2019-01-25T11:37:46.200Z,69.29
2019-01-25T11:40:24.068Z,64.70
2019-01-25T11:42:53.771Z,58.22
2019-01-25T11:45:23.017Z,55.29
2019-01-25T11:47:52.129Z,50.85
2019-01-25T11:50:21.271Z,45.82
2019-01-25T11:52:50.367Z,45.91
2019-01-25T11:55:19.662Z,44.46
2019-01-25T11:57:48.879Z,42.45
2019-01-25T12:00:20.662Z,47.56
2019-01-25T12:02:49.774Z,57.86
2019-01-25T12:05:20.176Z,67.34
2019-01-25T12:07:49.478Z,69.83
2019-01-25T12:10:20.752Z,71.10
2019-01-25T12:12:49.876Z,73.64
2019-01-25T12:15:18.951Z,75.74
2019-01-25T12:17:48.059Z,77.10
2019-01-25T12:20:19.754Z,76.24
2019-01-25T12:22:48.866Z,76.65
2019-01-25T12:25:17.952Z,77.17
2019-01-25T12:27:47.063Z,79.37
2019-01-25T12:30:27.717Z,79.09
2019-01-25T12:32:56.830Z,79.03
2019-01-25T12:35:26.067Z,78.24
2019-01-25T12:37:55.201Z,77.88
2019-01-25T12:40:24.284Z,78.32
2019-01-25T12:42:53.386Z,77.21
2019-01-25T12:45:24.440Z,76.65
2019-01-25T12:47:53.548Z,77.21
2019-01-25T12:50:31.252Z,77.56
2019-01-25T12:53:01.490Z,77.79
2019-01-25T12:55:32.760Z,76.49
2019-01-25T12:58:01.429Z,76.76
2019-01-25T13:00:31.076Z,78.16
2019-01-25T13:03:00.190Z,77.40
2019-01-25T13:05:29.285Z,75.26
2019-01-25T13:07:58.390Z,77.00
2019-01-25T13:10:27.471Z,78.58
2019-01-25T13:12:56.673Z,78.25
2019-01-25T13:15:25.747Z,78.32
2019-01-25T13:17:54.842Z,79.37
2019-01-25T13:20:25.599Z,79.64
2019-01-25T13:22:54.790Z,79.71
2019-01-25T13:25:23.875Z,79.78
2019-01-25T13:27:52.955Z,81.43
2019-01-25T13:30:24.554Z,81.31
2019-01-25T13:32:53.643Z,80.94
2019-01-25T13:35:22.744Z,79.93
2019-01-25T13:37:51.833Z,80.04
2019-01-25T13:40:22.122Z,80.84
2019-01-25T13:42:51.222Z,81.31
2019-01-25T13:45:20.613Z,81.88
2019-01-25T13:47:49.815Z,81.29
2019-01-25T13:50:20.807Z,81.64
2019-01-25T13:52:49.902Z,82.71
2019-01-25T13:55:19.199Z,82.26
2019-01-25T13:57:48.386Z,82.21
2019-01-25T14:00:23.093Z,83.06
2019-01-25T14:02:52.171Z,83.07
2019-01-25T14:05:21.376Z,82.30
2019-01-25T14:07:50.630Z,83.26
2019-01-25T14:10:22.334Z,83.85
2019-01-25T14:12:51.473Z,84.47
2019-01-25T14:15:20.577Z,84.50
2019-01-25T14:17:49.688Z,84.64
2019-01-25T14:20:23.416Z,84.99
2019-01-25T14:22:51.579Z,85.54
2019-01-25T14:25:20.665Z,85.88
2019-01-25T14:27:49.765Z,85.94
2019-01-25T14:30:22.105Z,85.86
2019-01-25T14:32:51.248Z,86.45
2019-01-25T14:35:20.335Z,87.13
2019-01-25T14:37:49.450Z,87.43
2019-01-25T14:40:18.559Z,87.56
2019-01-25T14:42:47.665Z,86.90
2019-01-25T14:45:17.021Z,87.50
2019-01-25T14:47:46.117Z,87.50
2019-01-25T14:50:17.667Z,87.30
2019-01-25T14:52:46.887Z,87.63
2019-01-25T14:55:15.985Z,87.77
2019-01-25T14:57:45.102Z,87.82
2019-01-25T15:00:15.028Z,88.03
2019-01-25T15:02:44.139Z,87.88
2019-01-25T15:05:16.002Z,88.01
2019-01-25T15:10:26.601Z,89.10
2019-01-25T15:12:57.728Z,88.30
2019-01-25T15:15:26.808Z,88.58
2019-01-25T15:17:55.962Z,88.98
2019-01-25T15:20:27.392Z,88.98
2019-01-25T15:22:56.503Z,89.13
2019-01-25T15:25:25.704Z,89.75
2019-01-25T15:27:54.820Z,90.09
2019-01-25T15:30:26.899Z,89.86
2019-01-25T15:32:56.244Z,90.03
2019-01-25T15:35:25.432Z,90.20
2019-01-25T15:37:54.568Z,90.40
2019-01-25T15:40:23.793Z,90.61
2019-01-25T15:42:52.913Z,90.90
2019-01-25T15:45:22.693Z,90.75
2019-01-25T15:47:51.811Z,90.80
2019-01-25T15:50:22.953Z,90.67
2019-01-25T15:52:52.068Z,90.40
2019-01-25T15:55:21.297Z,90.32
2019-01-25T15:57:50.405Z,90.39
2019-01-25T16:00:20.933Z,90.46
2019-01-25T16:02:50.054Z,90.25
2019-01-25T16:05:20.377Z,90.20
2019-01-25T16:07:49.948Z,90.41
2019-01-25T16:10:20.641Z,90.56
2019-01-25T16:12:49.879Z,90.95
2019-01-25T16:15:24.104Z,90.66
2019-01-25T16:17:53.847Z,90.89
2019-01-25T16:20:23.141Z,91.06
2019-01-25T16:22:52.355Z,90.96
2019-01-25T16:25:24.240Z,90.81
2019-01-25T16:27:53.334Z,90.98
2019-01-25T16:30:24.778Z,91.24
2019-01-25T16:32:53.863Z,91.36
2019-01-25T16:35:22.976Z,91.28
2019-01-25T16:37:52.221Z,91.37
2019-01-25T16:40:22.060Z,91.65
2019-01-25T16:42:51.219Z,91.29
2019-01-25T16:45:28.840Z,91.45
2019-01-25T16:47:57.959Z,91.50
2019-01-25T16:50:27.061Z,91.52
2019-01-25T16:52:56.149Z,91.69
2019-01-25T16:55:25.545Z,91.77
2019-01-25T16:57:54.629Z,92.04
2019-01-25T17:00:31.713Z,91.69
2019-01-25T17:03:00.806Z,92.02
2019-01-25T17:05:30.025Z,91.93
2019-01-25T17:07:59.132Z,92.10
2019-01-25T17:10:28.313Z,91.76
2019-01-25T17:12:57.445Z,91.83
2019-01-25T17:15:26.743Z,91.44
2019-01-25T17:17:55.860Z,91.52
2019-01-25T17:20:25.182Z,91.20
2019-01-25T17:22:54.275Z,90.98
2019-01-25T17:25:23.488Z,91.09
2019-01-25T17:27:52.589Z,91.00
2019-01-25T17:30:23.772Z,90.50
2019-01-25T17:32:53.318Z,90.55
2019-01-25T17:35:22.429Z,90.70
2019-01-25T17:37:51.555Z,90.30
2019-01-25T17:40:22.282Z,90.38
2019-01-25T17:42:51.383Z,90.57
2019-01-25T17:45:20.496Z,90.29
2019-01-25T17:47:49.592Z,90.43
2019-01-25T17:50:18.724Z,90.50
2019-01-25T17:52:47.816Z,90.45
2019-01-25T17:55:16.941Z,90.68
2019-01-25T17:57:46.440Z,90.72
2019-01-25T18:00:18.334Z,91.25
2019-01-25T18:02:47.450Z,91.14
2019-01-25T18:05:16.570Z,91.78
2019-01-25T18:07:46.073Z,92.51
2019-01-25T18:10:16.446Z,92.76
2019-01-25T18:12:45.549Z,92.79
2019-01-25T18:15:15.218Z,93.45
2019-01-25T18:17:45.289Z,93.91
2019-01-25T18:20:16.710Z,94.44
2019-01-25T18:22:46.696Z,94.83
2019-01-25T18:25:22.500Z,94.91
2019-01-25T18:27:55.796Z,95.36
2019-01-25T18:30:35.377Z,96.24
2019-01-25T18:33:04.784Z,96.92
2019-01-25T18:35:34.525Z,97.23
2019-01-25T18:38:04.525Z,97.69
2019-01-25T18:40:34.569Z,97.96
2019-01-25T18:43:04.562Z,97.55
2019-01-25T18:45:34.195Z,97.76
2019-01-25T18:48:03.984Z,98.01
2019-01-25T18:50:33.341Z,98.21
2019-01-25T18:53:03.045Z,98.42
2019-01-25T18:55:32.476Z,98.26
2019-01-25T18:58:03.150Z,98.58
2019-01-25T19:00:32.252Z,98.70
2019-01-25T19:03:02.578Z,98.80
2019-01-25T19:05:31.962Z,98.78
2019-01-25T19:08:02.073Z,98.63
2019-01-25T19:10:31.171Z,98.38
2019-01-25T19:13:00.279Z,97.90
2019-01-25T19:15:30.528Z,97.52
2019-01-25T19:17:59.860Z,97.60
2019-01-25T19:20:29.442Z,97.51
2019-01-25T19:22:58.855Z,97.07
2019-01-25T19:25:28.177Z,97.28
2019-01-25T19:27:58.277Z,97.30
2019-01-25T19:30:30.641Z,97.99
2019-01-25T19:33:00.591Z,98.14
2019-01-25T19:35:31.635Z,98.58
2019-01-25T19:38:01.303Z,99.06
2019-01-25T19:40:32.105Z,99.31
2019-01-25T19:43:01.213Z,99.30
2019-01-25T19:45:32.445Z,99.34
2019-01-25T19:48:02.526Z,99.32
2019-01-25T19:50:31.988Z,98.88
2019-01-25T19:53:01.667Z,98.81
2019-01-25T19:55:30.766Z,98.73
2019-01-25T19:58:00.066Z,98.31
2019-01-25T20:00:31.509Z,98.34
2019-01-25T20:03:00.620Z,98.49
2019-01-25T20:05:31.294Z,98.18
2019-01-25T20:08:01.650Z,98.15
2019-01-25T20:10:32.917Z,98.00
2019-01-25T20:13:03.138Z,98.03
2019-01-25T20:15:32.512Z,97.82
2019-01-25T20:18:03.144Z,97.82
2019-01-25T20:20:39.056Z,97.75
2019-01-25T20:23:09.178Z,97.60
2019-01-25T20:25:40.176Z,97.79
2019-01-25T20:28:10.000Z,97.70
2019-01-25T20:30:41.037Z,97.30
2019-01-25T20:33:11.379Z,97.57
2019-01-25T20:35:44.642Z,97.34
2019-01-25T20:38:15.596Z,97.46
2019-01-25T20:40:46.538Z,97.73
2019-01-25T20:43:16.044Z,98.27
2019-01-25T20:45:46.593Z,98.58
2019-01-25T20:48:20.536Z,98.73
2019-01-25T20:50:52.402Z,98.70
2019-01-25T20:53:22.429Z,98.61
2019-01-25T20:55:53.582Z,98.86
2019-01-25T20:58:23.645Z,98.93
2019-01-25T21:00:53.465Z,99.29
2019-01-25T21:03:22.627Z,99.44
2019-01-25T21:05:52.051Z,99.30
2019-01-25T21:08:22.556Z,98.81
2019-01-25T21:10:51.951Z,98.62
2019-01-25T21:13:22.323Z,99.17
2019-01-25T21:15:52.102Z,99.44
2019-01-25T21:18:22.822Z,99.93
2019-01-25T21:20:53.003Z,100.00
2019-01-25T21:23:23.173Z,100.00
2019-01-25T21:25:53.165Z,100.00
2019-01-25T21:28:23.913Z,100.00
2019-01-25T21:30:54.326Z,100.00
2019-01-25T21:33:24.074Z,100.00
2019-01-25T21:35:53.815Z,100.00
2019-01-25T21:38:23.711Z,100.00
2019-01-25T21:40:53.288Z,100.00
2019-01-25T21:43:23.599Z,100.00
2019-01-25T21:45:52.982Z,100.00
2019-01-25T21:48:22.602Z,100.00
2019-01-25T21:50:52.284Z,100.00
2019-01-25T21:53:21.691Z,100.00
2019-01-25T21:55:51.685Z,100.00
2019-01-25T21:58:21.169Z,100.00
2019-01-25T22:00:51.078Z,100.00
2019-01-25T22:03:20.659Z,100.00
2019-01-25T22:05:50.880Z,100.00
2019-01-25T22:08:20.532Z,100.00
2019-01-25T22:10:51.307Z,100.00
2019-01-25T22:13:20.978Z,100.00
2019-01-25T22:15:53.267Z,100.00
2019-01-25T22:18:22.896Z,100.00
2019-01-25T22:20:51.987Z,100.00
2019-01-25T22:23:21.113Z,100.00
2019-01-25T22:25:50.205Z,100.00
2019-01-25T22:28:19.337Z,100.00
2019-01-25T22:30:48.421Z,100.00
2019-01-25T22:33:17.528Z,100.00
2019-01-25T22:35:46.618Z,100.00
2019-01-25T22:38:15.726Z,100.00
2019-01-25T22:40:44.837Z,100.00
2019-01-25T22:43:13.949Z,100.00
2019-01-25T22:45:43.050Z,100.00
2019-01-25T22:48:12.164Z,100.00
2019-01-25T22:50:41.250Z,100.00
2019-01-25T22:53:10.357Z,100.00
2019-01-25T22:55:39.546Z,100.00
2019-01-25T22:58:08.659Z,100.00
2019-01-25T23:01:08.672Z,100.00
2019-01-25T23:03:51.262Z,100.00
2019-01-25T23:06:40.995Z,100.00
2019-01-25T23:09:13.799Z,100.00
2019-01-25T23:11:42.909Z,100.00
2019-01-25T23:14:12.007Z,100.00
2019-01-25T23:16:41.117Z,100.00
2019-01-25T23:19:10.231Z,100.00
2019-01-25T23:21:39.321Z,100.00
2019-01-25T23:24:08.441Z,100.00
2019-01-25T23:26:37.529Z,100.00
2019-01-25T23:29:06.636Z,100.00
2019-01-25T23:31:35.722Z,100.00
2019-01-25T23:34:05.036Z,100.00
2019-01-25T23:36:34.128Z,100.00
2019-01-25T23:39:03.257Z,100.00
2019-01-25T23:41:32.385Z,100.00
2019-01-25T23:44:01.500Z,100.00
2019-01-25T23:46:30.585Z,100.00
2019-01-25T23:48:59.686Z,100.00
2019-01-25T23:51:28.783Z,100.00
2019-01-25T23:53:57.887Z,100.00
2019-01-25T23:56:26.984Z,100.00
2019-01-25T23:58:56.095Z,100.00
